createdAt,value
2022-12-23T00:04:08.920Z,5.58
2022-12-23T00:09:12.240Z,5.59
2022-12-23T00:14:34.572Z,5.59
2022-12-23T00:19:37.853Z,5.60
2022-12-23T00:24:41.089Z,5.60
2022-12-23T00:29:44.572Z,5.60
2022-12-23T00:34:47.829Z,5.59
2022-12-23T00:40:09.798Z,5.59
2022-12-23T00:45:19.098Z,5.59
2022-12-23T00:50:22.370Z,5.58
2022-12-23T00:55:25.808Z,5.58
2022-12-23T01:00:47.900Z,5.58
2022-12-23T01:05:51.199Z,5.59
2022-12-23T01:10:55.071Z,5.61
2022-12-23T01:16:10.596Z,5.62
2022-12-23T01:21:18.744Z,5.62
2022-12-23T01:26:21.976Z,5.62
2022-12-23T01:31:27.094Z,5.62
2022-12-23T01:36:30.379Z,5.61
2022-12-23T01:41:53.194Z,5.60
2022-12-23T01:46:56.437Z,5.59
2022-12-23T01:51:59.713Z,5.57
2022-12-23T01:57:03.151Z,5.54
2022-12-23T02:02:25.319Z,5.50
2022-12-23T02:07:47.648Z,5.47
2022-12-23T02:13:27.020Z,5.44
2022-12-23T02:18:52.016Z,5.42
2022-12-23T02:24:04.251Z,5.40
2022-12-23T02:29:10.602Z,5.40
2022-12-23T02:34:30.633Z,5.38
2022-12-23T02:39:38.905Z,5.36
2022-12-23T02:45:05.202Z,5.34
2022-12-23T02:50:19.710Z,5.30
2022-12-23T02:55:30.583Z,5.27
2022-12-23T03:00:36.229Z,5.25
2022-12-23T03:05:44.316Z,5.24
2022-12-23T03:10:59.961Z,5.23
2022-12-23T03:16:03.224Z,5.21
2022-12-23T03:21:13.433Z,5.19
2022-12-23T03:26:23.768Z,5.15
2022-12-23T03:31:32.409Z,5.11
2022-12-23T03:36:42.167Z,5.09
2022-12-23T03:41:54.544Z,5.08
2022-12-23T03:47:14.842Z,5.07
2022-12-23T03:52:24.557Z,5.07
2022-12-23T03:57:38.568Z,5.08
2022-12-23T04:03:25.648Z,5.08
2022-12-23T04:08:40.712Z,5.10
2022-12-23T04:13:44.074Z,5.10
2022-12-23T04:18:47.387Z,5.11
2022-12-23T04:23:50.695Z,5.12
2022-12-23T04:28:53.988Z,5.12
2022-12-23T04:33:57.837Z,5.13
2022-12-23T04:39:01.077Z,5.15
2022-12-23T04:44:04.411Z,5.17
2022-12-23T04:49:07.798Z,5.18
2022-12-23T04:54:11.074Z,5.19
2022-12-23T04:59:14.518Z,5.20
2022-12-23T05:04:17.968Z,5.20
2022-12-23T05:09:21.280Z,5.20
2022-12-23T05:14:24.978Z,5.18
2022-12-23T05:19:28.227Z,5.15
2022-12-23T05:24:31.541Z,5.10
2022-12-23T05:29:34.754Z,5.04
2022-12-23T05:34:40.178Z,5.00
2022-12-23T05:39:43.555Z,4.91
2022-12-23T05:44:46.933Z,4.87
2022-12-23T05:49:51.015Z,4.88
2022-12-23T05:54:54.360Z,4.88
2022-12-23T05:59:58.137Z,4.87
2022-12-23T06:05:01.375Z,4.86
2022-12-23T06:10:06.725Z,4.85
2022-12-23T06:15:10.996Z,4.85
2022-12-23T06:20:20.450Z,4.86
2022-12-23T06:25:24.409Z,4.87
2022-12-23T06:30:28.288Z,4.89
2022-12-23T06:35:31.658Z,4.91
2022-12-23T06:40:35.006Z,4.93
2022-12-23T06:45:38.467Z,4.95
2022-12-23T06:50:41.735Z,4.96
2022-12-23T06:55:45.154Z,4.97
2022-12-23T07:00:48.382Z,4.98
2022-12-23T07:05:52.621Z,4.98
2022-12-23T07:11:06.485Z,4.98
2022-12-23T07:16:10.239Z,4.98
2022-12-23T07:21:21.328Z,4.99
2022-12-23T07:26:28.254Z,4.99
2022-12-23T07:31:31.586Z,4.98
2022-12-23T07:36:35.068Z,4.98
2022-12-23T07:41:38.433Z,5.00
2022-12-23T07:46:41.866Z,5.02
2022-12-23T07:51:45.241Z,5.06
2022-12-23T07:56:48.675Z,5.08
2022-12-23T08:01:52.060Z,5.10
2022-12-23T08:06:55.504Z,5.13
2022-12-23T08:11:58.767Z,5.14
2022-12-23T08:17:02.157Z,5.18
2022-12-23T08:22:05.573Z,5.23
2022-12-23T08:27:09.458Z,5.25
2022-12-23T08:32:12.833Z,5.26
2022-12-23T08:37:17.057Z,5.26
2022-12-23T08:42:20.777Z,5.26
2022-12-23T08:47:24.126Z,5.26
2022-12-23T08:52:28.299Z,5.24
2022-12-23T08:57:31.654Z,5.23
2022-12-23T09:02:35.174Z,5.23
2022-12-23T09:07:38.555Z,5.25
2022-12-23T09:12:41.950Z,5.29
2022-12-23T09:17:45.246Z,5.32
2022-12-23T09:22:48.564Z,5.34
2022-12-23T09:27:51.915Z,5.36
2022-12-23T09:32:55.499Z,5.35
2022-12-23T09:37:58.787Z,5.37
2022-12-23T09:43:39.589Z,5.36
2022-12-23T09:48:57.890Z,5.36
2022-12-23T09:54:16.425Z,5.38
2022-12-23T09:59:27.045Z,5.35
2022-12-23T10:04:40.208Z,5.33
2022-12-23T10:09:46.939Z,5.33
2022-12-23T10:14:53.051Z,5.34
2022-12-23T10:20:02.795Z,5.37
2022-12-23T10:25:14.716Z,5.39
2022-12-23T10:30:54.026Z,5.43
2022-12-23T10:36:10.467Z,5.46
2022-12-23T10:41:22.825Z,5.49
2022-12-23T10:46:51.138Z,5.55
2022-12-23T10:52:01.246Z,5.57
2022-12-23T10:57:06.087Z,5.54
2022-12-23T11:02:12.693Z,5.53
2022-12-23T11:07:45.444Z,5.58
2022-12-23T11:12:52.871Z,5.63
2022-12-23T11:18:04.192Z,5.67
2022-12-23T11:23:27.153Z,5.74
2022-12-23T11:28:31.910Z,5.80
2022-12-23T11:33:48.219Z,5.86
2022-12-23T11:38:54.509Z,5.94
2022-12-23T11:44:11.657Z,5.96
2022-12-23T11:49:16.698Z,6.01
2022-12-23T11:54:23.455Z,6.11
2022-12-23T11:59:33.087Z,6.14
2022-12-23T12:04:38.687Z,6.12
2022-12-23T12:09:44.023Z,6.11
2022-12-23T12:14:50.576Z,6.10
2022-12-23T12:20:06.407Z,6.12
2022-12-23T12:25:20.185Z,6.13
2022-12-23T12:30:23.791Z,6.15
2022-12-23T12:35:44.708Z,6.14
2022-12-23T12:40:52.927Z,6.14
2022-12-23T12:46:12.485Z,6.13
2022-12-23T12:51:43.953Z,6.10
2022-12-23T12:56:52.172Z,6.04
2022-12-23T13:02:33.722Z,5.98
2022-12-23T13:08:09.557Z,5.92
2022-12-23T13:13:37.831Z,5.92
2022-12-23T13:19:06.922Z,5.93
2022-12-23T13:24:22.545Z,5.91
2022-12-23T13:29:43.405Z,5.85
2022-12-23T13:35:06.905Z,5.83
2022-12-23T13:40:47.590Z,5.82
2022-12-23T13:45:55.721Z,5.73
2022-12-23T13:51:18.213Z,5.68
2022-12-23T13:56:39.432Z,5.66
2022-12-23T14:01:42.755Z,5.64
2022-12-23T14:06:48.750Z,5.60
2022-12-23T14:11:53.154Z,5.55
2022-12-23T14:17:21.342Z,5.51
2022-12-23T14:22:49.597Z,5.44
2022-12-23T14:28:19.970Z,5.35
2022-12-23T14:33:32.977Z,5.29
2022-12-23T14:38:36.450Z,5.26
2022-12-23T14:43:45.803Z,5.24
2022-12-23T14:48:49.925Z,5.21
2022-12-23T14:53:59.480Z,5.15
2022-12-23T14:59:21.686Z,5.13
2022-12-23T15:04:29.761Z,5.14
2022-12-23T15:09:45.568Z,5.15
2022-12-23T15:15:03.674Z,5.17
2022-12-23T15:20:20.021Z,5.20
2022-12-23T15:25:34.650Z,5.23
2022-12-23T15:30:48.844Z,5.26
2022-12-23T15:35:52.910Z,5.27
2022-12-23T15:41:01.103Z,5.28
2022-12-23T15:46:25.007Z,5.30
2022-12-23T15:52:05.886Z,5.32
2022-12-23T15:57:03.606Z,5.33
2022-12-23T16:02:58.867Z,5.32
2022-12-23T16:07:49.117Z,5.32
2022-12-23T16:12:53.443Z,5.33
2022-12-23T16:18:13.644Z,5.34
2022-12-23T16:23:18.071Z,5.35
2022-12-23T16:28:26.839Z,5.35
2022-12-23T16:33:38.303Z,5.36
2022-12-23T16:38:41.979Z,5.37
2022-12-23T16:43:51.843Z,5.37
2022-12-23T16:48:59.424Z,5.37
2022-12-23T16:54:02.887Z,5.38
2022-12-23T16:59:06.422Z,5.37
2022-12-23T17:04:09.857Z,5.37
2022-12-23T17:09:14.768Z,5.37
2022-12-23T17:14:21.431Z,5.37
2022-12-23T17:19:29.367Z,5.37
2022-12-23T17:24:33.294Z,5.36
2022-12-23T17:29:36.546Z,5.35
2022-12-23T17:34:41.182Z,5.34
2022-12-23T17:39:47.185Z,5.34
2022-12-23T17:44:51.632Z,5.34
2022-12-23T17:49:54.995Z,5.32
2022-12-23T17:54:58.464Z,5.31
2022-12-23T18:00:01.768Z,5.29
2022-12-23T18:05:35.354Z,5.29
2022-12-23T18:10:40.760Z,5.29
2022-12-23T18:15:45.749Z,5.28
2022-12-23T18:20:52.433Z,5.24
2022-12-23T18:25:56.875Z,5.20
2022-12-23T18:31:00.428Z,5.17
2022-12-23T18:36:04.543Z,5.16
2022-12-23T18:41:12.335Z,5.17
2022-12-23T18:46:15.899Z,5.16
2022-12-23T18:51:21.916Z,5.16
2022-12-23T18:56:25.243Z,5.17
2022-12-23T19:01:28.668Z,5.16
2022-12-23T19:06:32.017Z,5.16
2022-12-23T19:11:36.362Z,5.15
2022-12-23T19:16:39.879Z,5.14
2022-12-23T19:21:43.519Z,5.13
2022-12-23T19:26:47.208Z,5.13
2022-12-23T19:31:50.534Z,5.12
2022-12-23T19:36:54.089Z,5.13
2022-12-23T19:41:57.450Z,5.13
2022-12-23T19:47:01.527Z,5.13
2022-12-23T19:52:05.053Z,5.12
2022-12-23T19:57:08.485Z,5.12
2022-12-23T20:02:17.545Z,5.13
2022-12-23T20:07:21.435Z,5.14
2022-12-23T20:12:26.793Z,5.15
2022-12-23T20:17:33.156Z,5.15
2022-12-23T20:22:37.858Z,5.15
2022-12-23T20:27:41.317Z,5.15
2022-12-23T20:32:45.779Z,5.15
2022-12-23T20:37:49.231Z,5.14
2022-12-23T20:42:52.669Z,5.13
2022-12-23T20:47:56.221Z,5.13
2022-12-23T20:52:59.581Z,5.13
2022-12-23T20:58:23.030Z,5.12
2022-12-23T21:03:26.669Z,5.11
2022-12-23T21:08:30.359Z,5.09
2022-12-23T21:13:37.453Z,5.07
2022-12-23T21:18:44.056Z,5.05
2022-12-23T21:23:48.246Z,4.99
2022-12-23T21:28:53.787Z,4.89
2022-12-23T21:34:00.077Z,4.76
2022-12-23T21:39:07.791Z,4.63
2022-12-23T21:44:15.866Z,4.50
2022-12-23T21:49:20.808Z,4.39
2022-12-23T21:54:24.831Z,4.33
2022-12-23T21:59:34.714Z,4.27
2022-12-23T22:04:38.735Z,4.22
2022-12-23T22:09:42.145Z,4.19
2022-12-23T22:14:46.101Z,4.18
2022-12-23T22:19:50.093Z,4.17
2022-12-23T22:24:56.998Z,4.15
2022-12-23T22:30:01.386Z,4.12
2022-12-23T22:35:06.394Z,4.09
2022-12-23T22:40:13.356Z,4.06
2022-12-23T22:45:16.924Z,4.02
2022-12-23T22:50:20.377Z,4.02
2022-12-23T22:55:24.417Z,4.02
2022-12-23T23:00:27.895Z,4.00
2022-12-23T23:05:31.393Z,3.99
2022-12-23T23:10:34.725Z,3.96
2022-12-23T23:15:37.985Z,3.95
2022-12-23T23:20:41.515Z,3.90
2022-12-23T23:25:46.258Z,3.85
2022-12-23T23:31:03.607Z,3.78
2022-12-23T23:36:12.877Z,3.75
2022-12-23T23:41:22.503Z,3.74
2022-12-23T23:46:26.621Z,3.73
2022-12-23T23:51:30.084Z,3.73
2022-12-23T23:56:38.198Z,3.73
